Time;durP1;ratioP1;P1;durP2;ratioP2;P2;SDS_P1;SDS_P2;PMS_P1;PMS_P2;Temp;Humidity;BMP_temperature;BMP_pressure;BME280_temperature;BME280_humidity;BME280_pressure;Samples;Min_cycle;Max_cycle;Signal;HPM_P1;HPM_P2
2022/11/18 00:01:09;;;;;;;9.90;4.70;;;10.20;97.80;;;;;;5012013;28;20526;-75
2022/11/18 00:03:36;;;;;;;10.10;4.70;;;10.20;96.50;;;;;;5012339;28;20392;-74
2022/11/18 00:06:02;;;;;;;16.58;7.20;;;10.20;96.90;;;;;;5012019;28;20403;-75
2022/11/18 00:08:27;;;;;;;15.20;7.18;;;10.20;98.20;;;;;;5012300;28;20992;-75
2022/11/18 00:10:53;;;;;;;11.30;5.47;;;10.30;97.30;;;;;;5015480;28;20561;-73
2022/11/18 00:16:06;;;;;;;9.88;4.70;;;10.30;95.40;;;;;;5015773;28;20427;-75
2022/11/18 00:18:32;;;;;;;9.68;3.90;;;10.30;94.30;;;;;;5015698;28;20804;-74
2022/11/18 00:21:01;;;;;;;9.43;4.53;;;10.30;93.10;;;;;;5015372;28;20376;-74
2022/11/18 00:23:27;;;;;;;10.07;4.78;;;10.30;93.50;;;;;;5015637;28;20389;-74
2022/11/18 00:25:53;;;;;;;11.75;4.32;;;10.30;93.20;;;;;;5015604;28;20538;-75
2022/11/18 00:28:18;;;;;;;10.20;5.90;;;10.40;93.00;;;;;;5016720;28;20873;-75
2022/11/18 00:30:44;;;;;;;9.73;5.03;;;10.30;94.00;;;;;;5015296;28;20419;-75
2022/11/18 00:33:09;;;;;;;11.70;5.50;;;10.30;94.20;;;;;;5015400;28;20385;-74
2022/11/18 00:35:35;;;;;;;13.77;6.30;;;10.30;95.10;;;;;;5015226;28;20881;-75
2022/11/18 00:38:01;;;;;;;11.20;4.80;;;10.20;95.50;;;;;;5015656;28;20439;-76
2022/11/18 00:40:26;;;;;;;10.60;4.95;;;10.20;96.70;;;;;;5015398;28;20397;-74
2022/11/18 00:42:52;;;;;;;10.97;4.60;;;10.20;96.70;;;;;;5015931;28;20397;-74
2022/11/18 00:45:19;;;;;;;11.93;5.70;;;10.20;96.40;;;;;;5016081;28;20467;-75
2022/11/18 00:47:45;;;;;;;10.15;5.80;;;10.30;96.20;;;;;;5015929;28;20488;-74
2022/11/18 00:50:11;;;;;;;11.53;5.23;;;10.40;94.50;;;;;;5016117;28;20496;-76
2022/11/18 00:52:36;;;;;;;12.53;5.33;;;10.40;94.30;;;;;;5019812;28;20384;-73
2022/11/18 00:55:02;;;;;;;12.50;5.00;;;10.40;92.70;;;;;;5021766;28;20838;-74
2022/11/18 00:57:27;;;;;;;10.93;5.23;;;10.40;92.80;;;;;;5028034;28;20908;-77
2022/11/18 00:59:53;;;;;;;12.93;5.17;;;10.30;92.70;;;;;;5026711;28;20885;-75
2022/11/18 01:02:18;;;;;;;12.73;5.20;;;10.20;93.50;;;;;;5015318;28;20393;-75
2022/11/18 01:04:44;;;;;;;11.55;6.80;;;10.00;95.70;;;;;;5014400;28;20385;-75
2022/11/18 01:07:10;;;;;;;11.20;5.60;;;9.90;98.60;;;;;;5015191;28;20395;-75
2022/11/18 01:09:35;;;;;;;12.93;5.80;;;9.90;99.90;;;;;;5015168;28;20761;-75
2022/11/18 01:14:45;;;;;;;12.18;5.50;;;9.80;99.90;;;;;;5015402;28;20400;-75
2022/11/18 01:17:10;;;;;;;12.15;5.18;;;9.70;99.90;;;;;;5014771;28;20385;-73
2022/11/18 01:19:36;;;;;;;13.07;5.50;;;9.80;99.90;;;;;;5013729;28;20401;-74
2022/11/18 01:22:02;;;;;;;12.45;5.32;;;9.90;99.90;;;;;;5013493;28;20415;-74
2022/11/18 01:24:29;;;;;;;9.45;5.03;;;9.90;99.90;;;;;;5014719;28;20385;-75
2022/11/18 01:26:54;;;;;;;13.77;6.38;;;9.90;99.90;;;;;;5014960;28;20392;-74
2022/11/18 01:29:20;;;;;;;12.83;6.00;;;9.90;99.90;;;;;;5013177;28;20833;-74
2022/11/18 01:31:46;;;;;;;12.13;5.13;;;9.90;99.90;;;;;;5014388;28;20385;-75
2022/11/18 01:34:11;;;;;;;13.13;6.83;;;9.80;99.90;;;;;;5014554;28;20493;-74
2022/11/18 01:36:37;;;;;;;13.30;7.38;;;9.80;99.90;;;;;;5014686;28;20381;-74
2022/11/18 01:39:02;;;;;;;11.32;4.80;;;9.70;99.90;;;;;;5013783;28;20393;-74
2022/11/18 01:41:28;;;;;;;11.90;4.30;;;9.70;99.90;;;;;;5012043;28;20446;-75
2022/11/18 01:43:56;;;;;;;12.53;6.20;;;9.60;99.90;;;;;;5014071;28;20400;-75
2022/11/18 01:46:25;;;;;;;10.80;4.90;;;9.70;99.90;;;;;;5014423;28;20402;-75
2022/11/18 01:48:59;;;;;;;15.52;5.38;;;9.70;99.90;;;;;;5014532;28;20396;-75
2022/11/18 01:51:32;;;;;;;15.43;6.50;;;9.80;99.90;;;;;;5014448;28;20484;-75
2022/11/18 01:54:10;;;;;;;9.95;4.68;;;9.80;99.90;;;;;;5014206;28;20377;-74
2022/11/18 01:56:45;;;;;;;12.45;5.30;;;9.70;99.90;;;;;;5013321;28;20384;-74
2022/11/18 01:59:16;;;;;;;16.43;6.27;;;9.70;99.90;;;;;;5013491;28;20420;-74
2022/11/18 02:01:41;;;;;;;13.15;4.90;;;9.60;99.90;;;;;;5012942;28;20869;-75
2022/11/18 02:04:08;;;;;;;11.43;5.50;;;9.60;99.90;;;;;;5013396;28;20398;-75
2022/11/18 02:06:35;;;;;;;11.95;5.90;;;9.60;99.90;;;;;;5013325;28;20446;-75
2022/11/18 02:09:01;;;;;;;11.95;4.45;;;9.60;99.90;;;;;;5013316;28;20396;-75
2022/11/18 02:14:15;;;;;;;12.02;5.60;;;9.70;99.90;;;;;;5013673;28;20754;-75
2022/11/18 02:16:55;;;;;;;13.05;5.60;;;9.80;99.90;;;;;;5012798;28;20388;-75
2022/11/18 02:19:36;;;;;;;11.52;5.20;;;9.80;99.90;;;;;;5012896;28;20439;-75
2022/11/18 02:22:22;;;;;;;12.45;4.30;;;9.80;99.90;;;;;;5012990;28;20391;-75
2022/11/18 02:25:06;;;;;;;14.18;5.65;;;9.80;99.90;;;;;;5012688;28;20380;-75
2022/11/18 02:27:55;;;;;;;9.80;4.53;;;9.90;99.90;;;;;;5012449;28;20391;-74
2022/11/18 02:30:20;;;;;;;12.63;4.68;;;9.90;99.90;;;;;;5021102;28;20423;-76
2022/11/18 02:33:00;;;;;;;7.50;4.40;;;9.90;99.90;;;;;;5012820;28;20384;-75
2022/11/18 02:35:35;;;;;;;13.60;4.88;;;9.90;99.90;;;;;;5029170;28;20400;-75
2022/11/18 02:38:18;;;;;;;11.23;4.95;;;9.90;99.90;;;;;;5013210;28;20385;-74
2022/11/18 02:40:51;;;;;;;10.20;4.20;;;9.90;99.90;;;;;;5023864;22;20909;-73
2022/11/18 02:43:23;;;;;;;10.02;4.30;;;9.90;99.90;;;;;;4992382;28;20391;-74
2022/11/18 02:45:53;;;;;;;8.50;4.22;;;9.90;99.90;;;;;;4992365;28;20382;-75
2022/11/18 02:48:21;;;;;;;11.55;4.60;;;9.90;99.90;;;;;;4992299;28;20381;-74
2022/11/18 02:50:49;;;;;;;10.73;4.78;;;9.80;99.90;;;;;;4992061;28;20406;-74
2022/11/18 02:53:18;;;;;;;9.48;4.15;;;9.80;99.90;;;;;;4991997;28;20393;-73
2022/11/18 02:55:45;;;;;;;10.20;5.00;;;9.80;99.90;;;;;;4990890;28;20456;-73
2022/11/18 02:58:13;;;;;;;9.50;4.30;;;9.70;99.90;;;;;;4992046;28;20391;-74
2022/11/18 03:00:39;;;;;;;11.43;4.05;;;9.70;99.90;;;;;;4991876;28;20426;-74
2022/11/18 03:03:25;;;;;;;10.75;4.30;;;9.80;99.90;;;;;;4991823;28;20484;-74
2022/11/18 03:06:00;;;;;;;9.25;4.32;;;9.70;99.90;;;;;;4991911;28;20387;-74
2022/11/18 03:08:33;;;;;;;8.32;4.45;;;9.70;99.90;;;;;;4992001;28;20482;-74
2022/11/18 03:11:14;;;;;;;14.57;5.07;;;9.70;99.90;;;;;;4991588;28;20403;-74
2022/11/18 03:13:49;;;;;;;10.75;5.18;;;9.70;99.90;;;;;;4991797;28;20415;-74
2022/11/18 03:16:24;;;;;;;9.65;4.90;;;9.70;99.90;;;;;;4991930;28;20382;-74
2022/11/18 03:19:22;;;;;;;14.15;5.72;;;9.80;99.90;;;;;;4991687;28;20474;-74
2022/11/18 03:22:10;;;;;;;9.40;4.68;;;9.80;99.90;;;;;;4990236;28;20402;-75
2022/11/18 03:24:41;;;;;;;10.75;4.50;;;9.90;99.90;;;;;;4992632;28;20378;-75
2022/11/18 03:27:28;;;;;;;9.68;4.72;;;9.90;99.90;;;;;;4999048;28;20444;-75
2022/11/18 03:30:00;;;;;;;12.50;4.78;;;9.90;99.90;;;;;;4998893;28;20405;-75
2022/11/18 03:32:29;;;;;;;11.32;3.92;;;9.90;99.90;;;;;;5000104;28;20473;-73
2022/11/18 03:35:00;;;;;;;8.63;4.50;;;9.90;99.90;;;;;;4997837;28;20541;-74
2022/11/18 03:37:27;;;;;;;14.90;4.78;;;10.00;99.90;;;;;;4998847;28;20528;-75
2022/11/18 03:39:58;;;;;;;15.18;4.53;;;10.00;99.90;;;;;;5000447;28;20394;-75
2022/11/18 03:42:33;;;;;;;8.73;4.13;;;10.00;99.90;;;;;;4998748;28;20409;-73
2022/11/18 03:45:21;;;;;;;7.97;4.10;;;9.90;99.90;;;;;;4999148;28;20800;-74
2022/11/18 03:48:09;;;;;;;11.77;4.40;;;9.90;99.90;;;;;;5000327;28;20503;-74
2022/11/18 03:50:41;;;;;;;12.93;5.80;;;10.00;99.90;;;;;;5002752;28;20409;-75
2022/11/18 03:53:09;;;;;;;8.97;4.00;;;10.00;99.90;;;;;;5003212;28;20387;-75
2022/11/18 03:55:40;;;;;;;11.85;3.60;;;10.00;99.90;;;;;;4999559;28;20390;-72
2022/11/18 03:58:19;;;;;;;11.40;3.83;;;10.10;99.70;;;;;;4997572;28;20383;-74
2022/11/18 04:00:48;;;;;;;11.10;4.40;;;10.00;99.80;;;;;;4995416;28;20489;-75
2022/11/18 04:03:14;;;;;;;8.38;3.90;;;10.00;99.90;;;;;;4997075;28;20382;-75
2022/11/18 04:05:42;;;;;;;9.48;3.70;;;10.00;99.90;;;;;;4998942;28;20404;-73
2022/11/18 04:08:17;;;;;;;10.77;3.80;;;10.00;99.90;;;;;;4997827;28;20398;-75
2022/11/18 04:11:02;;;;;;;8.93;4.28;;;10.00;99.90;;;;;;4998901;28;20410;-74
2022/11/18 04:13:31;;;;;;;9.57;3.80;;;10.00;99.90;;;;;;5002124;28;20414;-75
2022/11/18 04:15:57;;;;;;;12.38;4.60;;;10.10;99.90;;;;;;5000367;28;20383;-74
2022/11/18 04:18:23;;;;;;;9.20;3.97;;;10.10;99.90;;;;;;4995512;28;20522;-75
2022/11/18 04:20:48;;;;;;;9.10;3.50;;;10.10;99.90;;;;;;4991779;28;20401;-75
2022/11/18 04:23:14;;;;;;;11.00;4.35;;;10.00;99.90;;;;;;4990096;28;20421;-75
2022/11/18 04:25:39;;;;;;;7.80;4.00;;;10.00;99.90;;;;;;4991255;28;20397;-74
2022/11/18 04:28:05;;;;;;;8.30;3.88;;;10.00;99.90;;;;;;4991415;28;20395;-75
2022/11/18 04:30:31;;;;;;;17.05;5.32;;;9.90;99.90;;;;;;4990887;28;20406;-74
2022/11/18 04:32:57;;;;;;;13.05;5.32;;;9.90;99.90;;;;;;4990881;28;20391;-75
2022/11/18 04:35:23;;;;;;;9.60;4.30;;;10.00;99.90;;;;;;4991060;28;20437;-75
2022/11/18 04:37:49;;;;;;;12.05;4.68;;;10.00;99.90;;;;;;4991213;28;20477;-74
2022/11/18 04:40:15;;;;;;;13.50;5.60;;;9.90;99.90;;;;;;4991315;28;20478;-74
2022/11/18 04:42:40;;;;;;;8.93;4.43;;;9.90;99.90;;;;;;4990589;28;20399;-74
2022/11/18 04:45:07;;;;;;;10.50;5.17;;;9.90;99.90;;;;;;4989896;28;20541;-74
2022/11/18 04:47:32;;;;;;;10.90;5.47;;;10.00;99.90;;;;;;4990885;28;20437;-75
2022/11/18 04:49:58;;;;;;;17.97;5.40;;;10.00;99.90;;;;;;4991684;28;20430;-74
2022/11/18 04:52:23;;;;;;;11.90;5.33;;;10.00;99.90;;;;;;4991268;28;20481;-73
2022/11/18 04:54:49;;;;;;;11.70;4.93;;;10.00;99.90;;;;;;4992222;28;20386;-76
2022/11/18 04:57:14;;;;;;;14.10;5.72;;;10.00;99.90;;;;;;4996499;28;20864;-74
2022/11/18 04:59:40;;;;;;;14.10;5.18;;;10.10;99.90;;;;;;4995121;28;20397;-74
2022/11/18 05:02:06;;;;;;;10.40;5.18;;;10.10;99.90;;;;;;4994175;28;20393;-74
2022/11/18 05:04:33;;;;;;;18.52;6.20;;;10.20;99.90;;;;;;4993191;28;20488;-74
2022/11/18 05:07:00;;;;;;;10.65;3.95;;;10.10;99.90;;;;;;4994312;28;20390;-74
2022/11/18 05:09:28;;;;;;;12.77;5.35;;;10.00;99.90;;;;;;4994046;28;20615;-74
2022/11/18 05:14:38;;;;;;;12.53;5.10;;;10.10;99.90;;;;;;4994050;28;20382;-75
2022/11/18 05:17:06;;;;;;;11.20;5.18;;;10.10;99.90;;;;;;4992784;28;20382;-75
2022/11/18 05:19:32;;;;;;;15.45;6.20;;;10.10;99.90;;;;;;4994335;28;20394;-74
2022/11/18 05:21:57;;;;;;;12.43;5.25;;;10.00;99.90;;;;;;4992667;28;20390;-73
2022/11/18 05:24:23;;;;;;;10.95;5.18;;;10.10;99.90;;;;;;4994185;28;20860;-75
2022/11/18 05:26:50;;;;;;;14.13;5.43;;;10.10;99.90;;;;;;4994475;28;20863;-73
2022/11/18 05:29:18;;;;;;;15.43;5.90;;;10.00;99.90;;;;;;4994649;28;20418;-74
2022/11/18 05:31:44;;;;;;;11.20;5.68;;;10.00;99.90;;;;;;4993951;28;20794;-75
2022/11/18 05:34:10;;;;;;;14.67;7.27;;;9.90;99.90;;;;;;4992770;28;20474;-74
2022/11/18 05:36:35;;;;;;;13.43;6.40;;;10.00;99.90;;;;;;4994012;28;20386;-74
2022/11/18 05:39:02;;;;;;;18.08;7.55;;;10.00;99.90;;;;;;4992765;28;20394;-74
2022/11/18 05:44:12;;;;;;;13.88;6.13;;;9.80;99.90;;;;;;4994610;28;20445;-75
2022/11/18 05:46:38;;;;;;;8.80;5.43;;;9.80;99.90;;;;;;4993941;28;20429;-74
2022/11/18 05:49:03;;;;;;;18.60;7.80;;;9.70;99.90;;;;;;4996017;28;20409;-73
2022/11/18 05:51:29;;;;;;;15.07;6.70;;;9.80;99.90;;;;;;4995043;28;20407;-74
2022/11/18 05:53:55;;;;;;;12.03;6.10;;;9.70;99.90;;;;;;4994471;28;20394;-74
2022/11/18 05:56:36;;;;;;;14.80;5.60;;;9.70;99.90;;;;;;4993889;28;20390;-76
2022/11/18 05:59:02;;;;;;;13.13;5.80;;;9.80;99.90;;;;;;4994615;28;20383;-76
2022/11/18 06:01:49;;;;;;;15.45;5.85;;;9.70;99.90;;;;;;4993300;28;20701;-74
2022/11/18 06:04:27;;;;;;;17.25;6.00;;;9.70;99.90;;;;;;4993426;28;20383;-74
2022/11/18 06:06:59;;;;;;;16.13;6.25;;;9.70;99.90;;;;;;4991812;28;20402;-74
2022/11/18 06:09:29;;;;;;;15.05;5.95;;;9.70;99.90;;;;;;4993038;28;20390;-74
2022/11/18 06:11:57;;;;;;;19.40;5.93;;;9.70;99.90;;;;;;4993395;28;20395;-74
2022/11/18 06:14:41;;;;;;;14.10;6.40;;;9.70;99.90;;;;;;4993202;28;20433;-75
2022/11/18 06:17:15;;;;;;;11.77;6.72;;;9.70;99.90;;;;;;4992146;28;20409;-74
2022/11/18 06:19:41;;;;;;;13.70;5.90;;;9.60;99.90;;;;;;4993463;28;20864;-76
2022/11/18 06:22:07;;;;;;;11.38;5.43;;;9.70;99.90;;;;;;4992898;28;20487;-75
2022/11/18 06:24:33;;;;;;;13.00;6.37;;;9.60;99.90;;;;;;4991740;28;20483;-74
2022/11/18 06:26:59;;;;;;;14.05;6.53;;;9.60;99.90;;;;;;4992104;28;20391;-74
2022/11/18 06:29:24;;;;;;;17.75;7.05;;;9.60;99.90;;;;;;4993506;28;20382;-74
2022/11/18 06:31:50;;;;;;;17.58;7.50;;;9.60;99.90;;;;;;4992724;28;20720;-74
2022/11/18 06:34:15;;;;;;;15.00;6.10;;;9.70;99.90;;;;;;4993104;28;20466;-74
2022/11/18 06:36:41;;;;;;;13.17;5.90;;;9.70;99.90;;;;;;4992313;28;20458;-73
2022/11/18 06:39:07;;;;;;;30.37;6.70;;;9.70;99.90;;;;;;4991943;28;20891;-74
2022/11/18 06:41:32;;;;;;;17.23;6.10;;;9.80;99.90;;;;;;4993744;28;20512;-74
2022/11/18 06:43:58;;;;;;;10.90;5.80;;;9.90;99.90;;;;;;4996130;28;20412;-74
2022/11/18 06:49:08;;;;;;;16.88;6.20;;;9.90;99.90;;;;;;4992389;28;20500;-74
2022/11/18 06:51:34;;;;;;;11.90;5.70;;;9.90;99.90;;;;;;4992094;28;20437;-72
2022/11/18 06:53:59;;;;;;;12.70;5.07;;;9.90;99.90;;;;;;4992864;28;20445;-74
2022/11/18 06:56:25;;;;;;;16.10;5.90;;;10.00;99.90;;;;;;4997670;28;20406;-75
2022/11/18 06:58:56;;;;;;;12.82;5.40;;;10.00;99.90;;;;;;4994070;28;20474;-73
2022/11/18 07:01:27;;;;;;;10.70;5.17;;;10.00;99.90;;;;;;5000312;28;20510;-73
2022/11/18 07:03:53;;;;;;;15.75;5.90;;;10.00;99.90;;;;;;4998888;28;20466;-73
2022/11/18 07:06:21;;;;;;;14.68;6.60;;;10.10;99.90;;;;;;5001319;28;20526;-74
2022/11/18 07:08:48;;;;;;;14.17;5.90;;;10.10;99.90;;;;;;4997908;28;20417;-72
2022/11/18 07:11:16;;;;;;;11.02;5.32;;;10.10;99.90;;;;;;4994346;28;20414;-72
2022/11/18 07:13:43;;;;;;;10.93;5.70;;;10.10;99.90;;;;;;4993552;28;20492;-74
2022/11/18 07:16:12;;;;;;;11.45;5.63;;;10.10;99.90;;;;;;4995844;28;20386;-73
2022/11/18 07:18:40;;;;;;;13.48;5.68;;;10.10;99.90;;;;;;4993579;28;20386;-73
2022/11/18 07:21:09;;;;;;;11.32;5.57;;;10.20;99.90;;;;;;4992112;28;20394;-72
2022/11/18 07:23:34;;;;;;;13.43;6.03;;;10.20;99.90;;;;;;4991566;28;20390;-71
2022/11/18 07:26:00;;;;;;;14.95;7.15;;;10.20;99.90;;;;;;4992342;28;20445;-73
2022/11/18 07:28:27;;;;;;;13.85;5.88;;;10.20;99.90;;;;;;4991761;28;20391;-72
2022/11/18 07:31:05;;;;;;;17.40;6.28;;;10.20;99.90;;;;;;4991976;28;20464;-72
2022/11/18 07:33:31;;;;;;;17.27;5.95;;;10.20;99.90;;;;;;4992734;28;20785;-72
2022/11/18 07:36:09;;;;;;;12.95;5.72;;;10.20;99.90;;;;;;4992296;28;20398;-74
2022/11/18 07:38:35;;;;;;;10.80;5.65;;;10.20;99.90;;;;;;4991691;28;20378;-73
2022/11/18 07:41:09;;;;;;;15.10;6.30;;;10.20;99.90;;;;;;4991364;28;20868;-71
2022/11/18 07:43:36;;;;;;;14.07;5.88;;;10.20;99.90;;;;;;4991827;28;20448;-71
2022/11/18 07:46:24;;;;;;;14.50;6.17;;;10.20;99.90;;;;;;4991646;28;20405;-73
2022/11/18 07:48:52;;;;;;;12.93;5.70;;;10.20;99.90;;;;;;4992042;28;20409;-74
2022/11/18 07:51:19;;;;;;;17.42;6.75;;;10.30;99.90;;;;;;4990432;28;20407;-71
2022/11/18 07:53:45;;;;;;;15.70;5.83;;;10.30;99.90;;;;;;4991911;28;20455;-71
2022/11/18 07:56:12;;;;;;;12.60;6.23;;;10.40;99.90;;;;;;4992093;28;20410;-73
2022/11/18 07:58:38;;;;;;;15.77;8.90;;;10.40;99.90;;;;;;4992083;28;20444;-73
2022/11/18 08:01:09;;;;;;;14.47;6.27;;;10.50;99.90;;;;;;4992042;28;20390;-72
2022/11/18 08:03:34;;;;;;;11.50;5.43;;;10.60;97.60;;;;;;4991910;28;20390;-73
2022/11/18 08:06:02;;;;;;;15.30;6.20;;;10.80;86.40;;;;;;4991791;28;20391;-73
2022/11/18 08:08:27;;;;;;;12.25;5.50;;;10.80;86.10;;;;;;4991556;28;20394;-71
2022/11/18 08:10:57;;;;;;;13.77;6.23;;;10.80;87.20;;;;;;4991598;28;20418;-73
2022/11/18 08:13:24;;;;;;;15.98;7.30;;;10.90;88.00;;;;;;4991797;28;20892;-73
2022/11/18 08:15:50;;;;;;;11.70;5.05;;;10.90;86.60;;;;;;4992279;28;20383;-72
2022/11/18 08:18:16;;;;;;;9.73;4.10;;;10.90;84.70;;;;;;4991955;28;20453;-72
2022/11/18 08:20:41;;;;;;;12.60;4.83;;;10.80;82.80;;;;;;4991535;28;20391;-73
2022/11/18 08:23:07;;;;;;;10.45;5.13;;;10.80;83.00;;;;;;4991525;28;20863;-72
2022/11/18 08:25:33;;;;;;;13.02;5.68;;;10.80;84.20;;;;;;4992438;28;20393;-72
2022/11/18 08:27:58;;;;;;;13.15;4.80;;;10.90;81.40;;;;;;4993508;28;20402;-73
2022/11/18 08:30:24;;;;;;;9.87;4.40;;;10.80;80.00;;;;;;4994979;28;20465;-73
2022/11/18 08:32:49;;;;;;;9.90;4.23;;;10.80;77.90;;;;;;4995870;28;20453;-72
2022/11/18 08:35:15;;;;;;;10.90;5.53;;;10.70;78.10;;;;;;4994373;28;20914;-73
2022/11/18 08:37:41;;;;;;;11.47;4.70;;;10.50;80.10;;;;;;4996075;28;20394;-73
2022/11/18 08:40:07;;;;;;;10.43;5.05;;;10.40;81.40;;;;;;4995444;28;20409;-73
2022/11/18 08:42:32;;;;;;;17.50;4.90;;;10.40;82.30;;;;;;4995579;28;20422;-75
2022/11/18 08:44:59;;;;;;;13.45;5.22;;;10.40;83.40;;;;;;4995762;28;20864;-76
2022/11/18 08:47:24;;;;;;;11.82;5.28;;;10.30;83.50;;;;;;4994319;28;20449;-74
2022/11/18 08:49:50;;;;;;;11.60;4.20;;;10.40;83.40;;;;;;4994322;28;20418;-73
2022/11/18 08:52:15;;;;;;;8.52;3.92;;;10.30;83.40;;;;;;4995342;28;20394;-77
2022/11/18 08:54:41;;;;;;;9.27;4.25;;;10.30;82.60;;;;;;4995413;28;20747;-76
2022/11/18 08:57:07;;;;;;;12.82;4.40;;;10.40;83.10;;;;;;4995435;28;20386;-73
2022/11/18 08:59:32;;;;;;;6.68;4.20;;;10.40;82.10;;;;;;4994015;28;20469;-75
2022/11/18 09:01:58;;;;;;;14.98;4.72;;;10.30;82.00;;;;;;4995218;28;20465;-74
2022/11/18 09:04:23;;;;;;;9.82;5.30;;;10.30;83.10;;;;;;4995194;28;20473;-73
2022/11/18 09:06:49;;;;;;;12.30;5.65;;;10.30;84.00;;;;;;4993827;28;20395;-75
2022/11/18 09:09:14;;;;;;;11.88;4.93;;;10.30;84.80;;;;;;4995327;28;20429;-73
2022/11/18 09:11:41;;;;;;;8.80;4.13;;;10.40;83.40;;;;;;4994523;28;20421;-74
2022/11/18 09:14:06;;;;;;;12.48;4.60;;;10.60;78.90;;;;;;5001996;28;20394;-74
2022/11/18 09:16:34;;;;;;;11.40;4.38;;;10.70;77.10;;;;;;5006455;28;20405;-75
2022/11/18 09:19:00;;;;;;;13.05;4.00;;;10.70;76.60;;;;;;5006879;28;20387;-76
2022/11/18 09:21:26;;;;;;;13.05;4.70;;;10.90;75.10;;;;;;5004396;28;20803;-74
2022/11/18 09:23:52;;;;;;;13.65;4.70;;;10.90;74.20;;;;;;5003243;28;20386;-73
2022/11/18 09:26:20;;;;;;;8.43;4.30;;;11.00;73.30;;;;;;5014653;28;20405;-73
2022/11/18 09:28:46;;;;;;;7.55;4.10;;;11.00;71.00;;;;;;5014509;28;20391;-73
2022/11/18 09:31:14;;;;;;;16.33;5.25;;;11.00;71.20;;;;;;5013064;28;20418;-73
2022/11/18 09:33:40;;;;;;;10.60;4.57;;;11.20;69.30;;;;;;4994524;28;20387;-74
2022/11/18 09:36:14;;;;;;;12.90;4.60;;;11.20;68.60;;;;;;4994433;28;20386;-75
2022/11/18 09:38:40;;;;;;;9.35;4.40;;;11.30;69.70;;;;;;4994714;28;20408;-73
2022/11/18 09:41:35;;;;;;;8.87;4.53;;;11.20;68.10;;;;;;4993823;28;20787;-74
2022/11/18 09:44:10;;;;;;;13.15;4.22;;;11.30;66.60;;;;;;4994952;28;20418;-76
2022/11/18 09:47:06;;;;;;;15.18;4.03;;;11.40;65.50;;;;;;4994978;28;20510;-74
2022/11/18 09:49:36;;;;;;;15.27;4.40;;;11.50;63.50;;;;;;4995361;28;20418;-75
2022/11/18 09:52:06;;;;;;;14.65;4.72;;;11.40;62.50;;;;;;4998689;28;20390;-72
2022/11/18 09:54:36;;;;;;;15.47;4.90;;;11.40;65.40;;;;;;5002388;28;20437;-75
2022/11/18 09:57:03;;;;;;;13.40;4.80;;;11.40;65.10;;;;;;5001637;28;20398;-74
2022/11/18 09:59:31;;;;;;;11.70;4.10;;;11.60;65.00;;;;;;4998935;28;20402;-75
2022/11/18 10:02:28;;;;;;;14.55;4.60;;;11.60;62.10;;;;;;5002966;28;20394;-76
2022/11/18 10:05:00;;;;;;;10.55;5.40;;;11.60;60.40;;;;;;5002358;28;20387;-75
2022/11/18 10:07:53;;;;;;;13.20;4.30;;;11.70;61.80;;;;;;4991891;28;20406;-73
2022/11/18 10:10:27;;;;;;;5.07;3.30;;;11.60;60.40;;;;;;4992268;28;20406;-75
2022/11/18 10:13:01;;;;;;;11.25;3.80;;;11.80;58.20;;;;;;4992639;28;20409;-75
2022/11/18 10:15:29;;;;;;;12.55;4.10;;;11.70;57.00;;;;;;4993482;28;20395;-74
2022/11/18 10:18:30;;;;;;;12.23;5.00;;;11.70;56.80;;;;;;4991890;28;20394;-74
2022/11/18 10:21:10;;;;;;;13.75;4.85;;;11.70;59.10;;;;;;4989936;28;20771;-72
2022/11/18 10:24:09;;;;;;;15.10;4.80;;;11.70;59.90;;;;;;4992519;28;20422;-75
2022/11/18 10:26:39;;;;;;;9.48;3.88;;;11.60;59.70;;;;;;4989716;28;20499;-73
2022/11/18 10:29:08;;;;;;;12.80;5.00;;;11.50;61.30;;;;;;4993454;28;20402;-75
2022/11/18 10:31:54;;;;;;;10.95;4.95;;;11.40;61.40;;;;;;4999340;28;20410;-75
2022/11/18 10:34:19;;;;;;;11.45;4.40;;;11.50;61.60;;;;;;4991239;28;20425;-73
2022/11/18 10:36:59;;;;;;;9.98;3.80;;;11.50;59.80;;;;;;4991184;28;20508;-74
2022/11/18 10:39:24;;;;;;;16.10;4.40;;;11.60;58.20;;;;;;4990732;28;20496;-75
2022/11/18 10:42:03;;;;;;;9.03;3.70;;;11.70;59.70;;;;;;4987431;28;20444;-75
2022/11/18 10:44:39;;;;;;;17.17;4.53;;;11.70;58.50;;;;;;4975158;28;20827;-75
2022/11/18 10:47:26;;;;;;;7.80;4.03;;;11.80;57.50;;;;;;4992126;28;20406;-75
2022/11/18 10:49:54;;;;;;;18.88;4.70;;;11.80;57.10;;;;;;4981854;28;20745;-74
2022/11/18 10:52:20;;;;;;;16.85;5.25;;;12.00;55.60;;;;;;4991169;28;20390;-76
2022/11/18 10:55:05;;;;;;;16.73;3.85;;;12.10;56.40;;;;;;4972653;28;20462;-75
2022/11/18 10:57:35;;;;;;;13.07;4.00;;;12.30;52.40;;;;;;4991840;28;20386;-74
2022/11/18 11:00:01;;;;;;;13.80;3.50;;;12.20;51.50;;;;;;4994323;28;20493;-74
2022/11/18 11:02:53;;;;;;;21.77;4.97;;;12.40;52.00;;;;;;4992547;28;20803;-74
2022/11/18 11:05:21;;;;;;;13.82;3.88;;;12.30;52.50;;;;;;4991939;28;20464;-75
2022/11/18 11:08:05;;;;;;;11.40;4.00;;;12.30;52.00;;;;;;4992417;28;21054;-76
2022/11/18 11:10:31;;;;;;;10.98;3.70;;;12.30;52.20;;;;;;4990987;28;20407;-76
2022/11/18 11:13:09;;;;;;;12.45;4.07;;;12.50;50.60;;;;;;4973890;28;20454;-75
2022/11/18 11:15:40;;;;;;;10.75;3.88;;;12.60;50.40;;;;;;4973948;28;20459;-74
2022/11/18 11:20:59;;;;;;;9.77;4.13;;;12.90;49.20;;;;;;4972996;28;20516;-75
2022/11/18 11:23:24;;;;;;;10.80;4.43;;;13.00;47.20;;;;;;4973736;28;20805;-75
2022/11/18 11:26:29;;;;;;;13.27;3.80;;;13.10;46.30;;;;;;4972226;28;20885;-76
2022/11/18 11:29:05;;;;;;;11.85;4.38;;;13.30;44.90;;;;;;4972952;28;20496;-77
2022/11/18 11:32:01;;;;;;;15.55;4.30;;;13.30;43.90;;;;;;4973437;28;20412;-75
2022/11/18 11:34:50;;;;;;;9.73;3.50;;;13.30;43.10;;;;;;4973142;28;20388;-75
2022/11/18 11:37:55;;;;;;;13.83;5.03;;;13.40;42.70;;;;;;4973678;28;20475;-71
2022/11/18 11:40:38;;;;;;;11.18;3.40;;;13.40;44.10;;;;;;4973365;28;20439;-75
2022/11/18 11:43:29;;;;;;;8.35;3.58;;;13.40;43.10;;;;;;4972708;28;20781;-76
2022/11/18 11:46:13;;;;;;;14.35;3.70;;;13.70;42.30;;;;;;4980314;28;20382;-75
2022/11/18 11:49:04;;;;;;;17.27;4.20;;;14.30;39.30;;;;;;4994020;28;20490;-75
2022/11/18 11:51:46;;;;;;;12.15;3.20;;;14.70;37.70;;;;;;4992202;28;20868;-76
2022/11/18 11:54:55;;;;;;;19.73;3.90;;;14.80;35.10;;;;;;4993151;28;20872;-74
2022/11/18 11:57:39;;;;;;;13.73;3.55;;;14.80;36.10;;;;;;4999515;28;20408;-75
2022/11/18 12:00:12;;;;;;;13.13;4.40;;;14.90;34.90;;;;;;4994458;28;20445;-73
2022/11/18 12:03:12;;;;;;;9.52;3.50;;;14.90;36.00;;;;;;4997209;28;20482;-75
2022/11/18 12:05:41;;;;;;;9.32;3.60;;;14.80;35.70;;;;;;4997232;28;20386;-76
2022/11/18 12:08:19;;;;;;;13.20;4.45;;;14.60;36.20;;;;;;4997671;28;20394;-75
2022/11/18 12:10:51;;;;;;;10.23;3.33;;;14.80;36.20;;;;;;4997511;28;20417;-75
2022/11/18 12:13:30;;;;;;;8.85;3.42;;;14.80;34.60;;;;;;4999883;28;20384;-74
2022/11/18 12:16:24;;;;;;;13.27;3.42;;;14.60;35.00;;;;;;4999318;28;20390;-75
2022/11/18 12:19:07;;;;;;;11.80;3.08;;;14.50;35.30;;;;;;4998690;28;20386;-76
2022/11/18 12:21:45;;;;;;;9.30;3.20;;;14.60;35.00;;;;;;4995695;28;20476;-74
2022/11/18 12:24:16;;;;;;;13.93;3.10;;;14.40;35.20;;;;;;4992204;28;20411;-75
2022/11/18 12:26:46;;;;;;;9.15;2.38;;;14.30;36.30;;;;;;4997626;28;20406;-75
2022/11/18 12:29:36;;;;;;;12.02;4.10;;;14.30;36.20;;;;;;4997088;28;20397;-73
2022/11/18 12:32:02;;;;;;;14.65;4.05;;;14.10;37.90;;;;;;4992209;28;20461;-74
2022/11/18 12:34:32;;;;;;;10.88;3.50;;;14.10;36.30;;;;;;4996146;28;20768;-74
2022/11/18 12:37:18;;;;;;;11.10;3.50;;;14.10;37.30;;;;;;4995803;28;20451;-74
2022/11/18 12:39:43;;;;;;;11.00;3.20;;;13.90;37.90;;;;;;4997636;28;20907;-75
2022/11/18 12:45:47;;;;;;;8.77;2.42;;;13.40;38.90;;;;;;4996696;28;20409;-74
2022/11/18 12:48:32;;;;;;;9.93;2.85;;;13.00;42.10;;;;;;5000018;28;20422;-74
2022/11/18 12:51:08;;;;;;;11.40;2.95;;;12.80;44.20;;;;;;5004393;28;20433;-74
2022/11/18 12:53:40;;;;;;;11.18;3.80;;;12.70;45.30;;;;;;5005586;28;20410;-75
2022/11/18 12:56:22;;;;;;;14.60;3.45;;;12.70;44.60;;;;;;5003314;28;20923;-74
2022/11/18 12:58:53;;;;;;;10.88;3.25;;;12.70;45.10;;;;;;5000664;28;20379;-73
2022/11/18 13:01:24;;;;;;;14.65;3.60;;;12.80;44.90;;;;;;5006025;28;20378;-74
2022/11/18 13:03:51;;;;;;;11.10;3.13;;;12.90;44.10;;;;;;5001908;28;20397;-74
2022/11/18 13:06:30;;;;;;;10.00;3.50;;;12.90;45.00;;;;;;4997170;28;20737;-75
2022/11/18 13:09:13;;;;;;;12.82;3.30;;;12.80;43.60;;;;;;5000129;28;20406;-75
2022/11/18 13:11:55;;;;;;;13.88;3.80;;;12.60;43.90;;;;;;5003229;28;20417;-73
2022/11/18 13:20:32;;;;;;;14.43;4.38;;;12.00;49.20;;;;;;4997553;28;20391;-74
2022/11/18 13:26:24;;;;;;;14.85;6.18;;;11.70;51.20;;;;;;5006448;28;20390;-75
2022/11/18 13:29:08;;;;;;;14.30;4.28;;;11.60;53.30;;;;;;5002245;28;20391;-74
2022/11/18 13:31:45;;;;;;;13.33;4.30;;;11.50;53.00;;;;;;5004615;28;20506;-74
2022/11/18 13:34:22;;;;;;;11.47;4.70;;;11.40;53.50;;;;;;5005787;28;20401;-73